createdAt,value
2017-01-28T00:00:02.646Z,6.38
2017-01-28T00:00:28.791Z,6.38
2017-01-28T00:00:54.921Z,6.48
2017-01-28T00:01:21.055Z,6.41
2017-01-28T00:01:47.230Z,6.39
2017-01-28T00:02:13.377Z,6.44
2017-01-28T00:02:39.477Z,6.45
2017-01-28T00:03:05.617Z,6.42
2017-01-28T00:03:31.805Z,6.42
2017-01-28T00:03:57.921Z,6.42
2017-01-28T00:04:24.028Z,6.42
2017-01-28T00:04:50.189Z,6.35
2017-01-28T00:05:16.334Z,6.39
2017-01-28T00:05:42.487Z,6.35
2017-01-28T00:06:08.588Z,6.24
2017-01-28T00:06:34.733Z,6.26
2017-01-28T00:07:00.855Z,6.27
2017-01-28T00:07:26.993Z,6.26
2017-01-28T00:07:53.122Z,6.2
2017-01-28T00:08:19.247Z,6.2
2017-01-28T00:08:45.398Z,6.12
2017-01-28T00:09:11.545Z,6.17
2017-01-28T00:09:37.654Z,6.12
2017-01-28T00:10:03.784Z,6.14
2017-01-28T00:10:29.983Z,6.22
2017-01-28T00:10:56.160Z,6.07
2017-01-28T00:11:22.293Z,6.07
2017-01-28T00:11:48.395Z,6.07
2017-01-28T00:12:14.593Z,6.07
2017-01-28T00:12:40.723Z,6.14
2017-01-28T00:13:06.965Z,6.14
2017-01-28T00:13:33.072Z,6.2
2017-01-28T00:13:59.225Z,6.28
2017-01-28T00:14:25.439Z,6.24
2017-01-28T00:14:51.588Z,6.22
2017-01-28T00:15:17.734Z,6.31
2017-01-28T00:15:43.875Z,6.2
2017-01-28T00:16:10.092Z,6.27
2017-01-28T00:16:36.230Z,6.26
2017-01-28T00:17:02.630Z,6.2
2017-01-28T00:17:28.766Z,6.19
2017-01-28T00:17:54.879Z,6.3
2017-01-28T00:18:21.016Z,6.22
2017-01-28T00:18:47.121Z,6.22
2017-01-28T00:19:13.237Z,6.28
2017-01-28T00:19:39.422Z,6.2
2017-01-28T00:20:05.512Z,6.26
2017-01-28T00:20:31.672Z,6.14
2017-01-28T00:20:57.841Z,6.19
2017-01-28T00:21:24.060Z,6.26
2017-01-28T00:21:50.239Z,6.2
2017-01-28T00:22:16.398Z,6.16
2017-01-28T00:22:42.572Z,6.11
2017-01-28T00:23:08.695Z,6.14
2017-01-28T00:23:34.854Z,6.14
2017-01-28T00:24:00.960Z,6.19
2017-01-28T00:24:27.074Z,6.14
2017-01-28T00:24:53.182Z,6.14
2017-01-28T00:25:19.309Z,6.08
2017-01-28T00:25:45.512Z,6.14
2017-01-28T00:26:11.660Z,6.07
2017-01-28T00:26:37.761Z,6.07
2017-01-28T00:27:03.893Z,6.08
2017-01-28T00:27:30.041Z,6.11
2017-01-28T00:27:56.163Z,6.12
2017-01-28T00:28:22.328Z,6.04
2017-01-28T00:28:48.461Z,6.17
2017-01-28T00:29:14.581Z,6.17
2017-01-28T00:29:40.747Z,6.2
2017-01-28T00:30:06.911Z,6.19
2017-01-28T00:30:33.088Z,6.16
2017-01-28T00:30:59.210Z,6.17
2017-01-28T00:31:25.375Z,6.2
2017-01-28T00:31:51.574Z,6.04
2017-01-28T00:33:13.639Z,6.11
2017-01-28T00:33:39.766Z,6.09
2017-01-28T00:34:05.943Z,6.05
2017-01-28T00:34:32.147Z,6.12
2017-01-28T00:34:58.254Z,6.17
2017-01-28T00:35:24.358Z,6.14
2017-01-28T00:35:50.471Z,6.11
2017-01-28T00:36:16.711Z,6.14
2017-01-28T00:36:42.816Z,6.11
2017-01-28T00:37:09.010Z,6.17
2017-01-28T00:37:35.166Z,6.17
2017-01-28T00:38:01.318Z,6.2
2017-01-28T00:38:27.471Z,6.2
2017-01-28T00:38:53.594Z,6.19
2017-01-28T00:39:19.727Z,6.14
2017-01-28T00:39:45.852Z,6.16
2017-01-28T00:40:12.212Z,6.19
2017-01-28T00:40:38.303Z,6.19
2017-01-28T00:41:04.413Z,6.2
2017-01-28T00:41:30.519Z,6.2
2017-01-28T00:41:56.661Z,6.17
2017-01-28T00:42:22.778Z,6.19
2017-01-28T00:42:49.030Z,6.31
2017-01-28T00:43:15.235Z,6.27
2017-01-28T00:43:41.441Z,6.26
2017-01-28T00:44:07.555Z,6.28
2017-01-28T00:44:33.725Z,6.35
2017-01-28T00:44:59.837Z,6.28
2017-01-28T00:45:25.980Z,6.35
2017-01-28T00:45:52.207Z,6.3
2017-01-28T00:46:18.377Z,6.39
2017-01-28T00:46:44.523Z,6.42
2017-01-28T00:47:10.714Z,6.35
2017-01-28T00:47:36.909Z,6.38
2017-01-28T00:48:03.064Z,6.36
2017-01-28T00:48:29.150Z,6.41
2017-01-28T00:48:55.269Z,6.45
2017-01-28T00:49:21.439Z,6.36
2017-01-28T00:49:47.559Z,6.46
2017-01-28T00:50:13.682Z,6.35
2017-01-28T00:50:39.790Z,6.42
2017-01-28T00:51:06.005Z,6.45
2017-01-28T00:51:32.141Z,6.46
2017-01-28T00:51:58.245Z,6.49
2017-01-28T00:52:24.434Z,6.48
2017-01-28T00:52:50.546Z,6.44
2017-01-28T00:53:16.683Z,6.46
2017-01-28T00:53:42.832Z,6.52
2017-01-28T00:54:08.997Z,6.51
2017-01-28T00:54:35.151Z,6.54
2017-01-28T00:55:01.336Z,6.52
2017-01-28T00:55:27.567Z,6.52
2017-01-28T00:55:53.694Z,6.59
2017-01-28T00:56:19.839Z,6.62
2017-01-28T00:56:45.977Z,6.6
2017-01-28T00:57:12.217Z,6.64
2017-01-28T00:57:38.330Z,6.6
2017-01-28T00:58:04.509Z,6.63
2017-01-28T00:58:30.616Z,6.66
2017-01-28T00:58:56.732Z,6.57
2017-01-28T00:59:22.894Z,6.72
2017-01-28T00:59:49.004Z,6.7
2017-01-28T01:00:15.167Z,6.62
2017-01-28T01:00:41.272Z,6.74
2017-01-28T01:01:07.365Z,6.72
2017-01-28T01:01:33.491Z,6.62
2017-01-28T01:01:59.676Z,6.62
2017-01-28T01:02:25.790Z,6.77
2017-01-28T01:02:51.919Z,6.74
2017-01-28T01:03:18.127Z,6.63
2017-01-28T01:03:44.315Z,6.74
2017-01-28T01:04:10.484Z,6.7
2017-01-28T01:04:36.589Z,6.72
2017-01-28T01:05:02.752Z,6.64
2017-01-28T01:05:28.971Z,6.7
2017-01-28T01:05:55.095Z,6.59
2017-01-28T01:06:21.274Z,6.66
2017-01-28T01:06:47.477Z,6.57
2017-01-28T01:07:13.576Z,6.57
2017-01-28T01:07:39.722Z,6.59
2017-01-28T01:08:05.836Z,6.72
2017-01-28T01:08:32.011Z,6.7
2017-01-28T01:08:58.154Z,6.62
2017-01-28T01:09:24.343Z,6.74
2017-01-28T01:09:50.479Z,6.75
2017-01-28T01:10:16.599Z,6.77
2017-01-28T01:10:42.746Z,6.79
2017-01-28T01:11:08.860Z,6.79
2017-01-28T01:11:35.004Z,6.79
2017-01-28T01:12:01.162Z,6.78
2017-01-28T01:12:27.300Z,6.77
2017-01-28T01:12:53.462Z,6.75
2017-01-28T01:13:19.560Z,6.79
2017-01-28T01:13:45.702Z,6.74
2017-01-28T01:14:11.869Z,6.67
2017-01-28T01:14:37.979Z,6.72
2017-01-28T01:15:04.113Z,6.72
2017-01-28T01:15:30.289Z,6.72
2017-01-28T01:15:56.440Z,6.74
2017-01-28T01:16:22.545Z,6.79
2017-01-28T01:16:48.702Z,6.79
2017-01-28T01:17:14.843Z,6.75
2017-01-28T01:17:40.951Z,6.78
2017-01-28T01:18:07.148Z,6.79
2017-01-28T01:18:33.314Z,6.79
2017-01-28T01:18:59.461Z,6.82
2017-01-28T01:19:25.566Z,6.75
2017-01-28T01:19:51.684Z,6.79
2017-01-28T01:20:17.805Z,6.74
2017-01-28T01:20:43.980Z,6.75
2017-01-28T01:21:10.092Z,6.77
2017-01-28T01:21:36.225Z,6.74
2017-01-28T01:22:02.310Z,6.72
2017-01-28T01:22:28.432Z,6.75
2017-01-28T01:22:54.572Z,6.6
2017-01-28T01:23:20.658Z,6.72
2017-01-28T01:23:46.828Z,6.69
2017-01-28T01:24:12.932Z,6.72
2017-01-28T01:24:39.085Z,6.72
2017-01-28T01:25:05.230Z,6.62
2017-01-28T01:25:31.419Z,6.63
2017-01-28T01:25:57.545Z,6.75
2017-01-28T01:26:23.650Z,6.6
2017-01-28T01:26:49.814Z,6.67
2017-01-28T01:27:15.997Z,6.69
2017-01-28T01:27:42.122Z,6.72
2017-01-28T01:28:08.251Z,6.64
2017-01-28T01:28:34.388Z,6.6
2017-01-28T01:29:00.560Z,6.72
2017-01-28T01:29:26.692Z,6.67
2017-01-28T01:29:52.891Z,6.7
2017-01-28T01:30:19.007Z,6.7
2017-01-28T01:30:45.137Z,6.74
2017-01-28T01:31:11.354Z,6.7
2017-01-28T01:31:37.451Z,6.64
2017-01-28T01:32:03.589Z,6.54
2017-01-28T01:32:29.668Z,6.62
2017-01-28T01:32:55.770Z,6.64
2017-01-28T01:33:21.905Z,6.7
2017-01-28T01:33:48.098Z,6.64
2017-01-28T01:34:14.256Z,6.62
2017-01-28T01:34:40.426Z,6.69
2017-01-28T01:35:06.577Z,6.6
2017-01-28T01:35:32.665Z,6.54
2017-01-28T01:35:58.797Z,6.72
2017-01-28T01:36:24.927Z,6.72
2017-01-28T01:36:51.045Z,6.77
2017-01-28T01:37:17.183Z,6.75
2017-01-28T01:37:43.379Z,6.67
2017-01-28T01:38:09.524Z,6.72
2017-01-28T01:38:35.708Z,6.7
2017-01-28T01:39:01.851Z,6.63
2017-01-28T01:39:28.010Z,6.63
2017-01-28T01:39:54.173Z,6.62
2017-01-28T01:40:20.284Z,6.67
2017-01-28T01:40:46.444Z,6.66
2017-01-28T01:41:12.600Z,6.79
2017-01-28T01:41:38.720Z,6.63
2017-01-28T01:42:04.847Z,6.7
2017-01-28T01:42:30.957Z,6.7
2017-01-28T01:42:57.065Z,6.7
2017-01-28T01:43:23.218Z,6.6
2017-01-28T01:43:49.371Z,6.69
2017-01-28T01:44:15.503Z,6.7
2017-01-28T01:44:41.605Z,6.63
2017-01-28T01:45:07.719Z,6.72
2017-01-28T01:45:33.851Z,6.59
2017-01-28T01:45:59.988Z,6.72
2017-01-28T01:46:26.081Z,6.72
2017-01-28T01:46:52.206Z,6.6
2017-01-28T01:47:18.307Z,6.59
2017-01-28T01:47:44.429Z,6.75
2017-01-28T01:48:10.530Z,6.75
2017-01-28T01:48:36.693Z,6.74
2017-01-28T01:49:02.856Z,6.74
2017-01-28T01:49:29.049Z,6.7
2017-01-28T01:49:55.133Z,6.6
2017-01-28T01:50:21.331Z,6.6
2017-01-28T01:50:47.445Z,6.59
2017-01-28T01:51:13.562Z,6.72
2017-01-28T01:51:39.715Z,6.62
2017-01-28T01:52:05.903Z,6.62
2017-01-28T01:52:32.049Z,6.7
2017-01-28T01:52:58.186Z,6.67
2017-01-28T01:53:24.351Z,6.66
2017-01-28T01:53:50.510Z,6.7
2017-01-28T01:54:16.632Z,6.62
2017-01-28T01:54:42.767Z,6.57
2017-01-28T01:55:08.930Z,6.64
2017-01-28T01:55:35.038Z,6.6
2017-01-28T01:56:01.161Z,6.69
2017-01-28T01:56:27.304Z,6.56
2017-01-28T01:56:53.491Z,6.66
2017-01-28T01:57:19.646Z,6.56
2017-01-28T01:57:45.812Z,6.62
2017-01-28T01:58:11.949Z,6.62
2017-01-28T01:58:38.084Z,6.6
2017-01-28T01:59:04.176Z,6.6
2017-01-28T01:59:30.303Z,6.6
2017-01-28T01:59:56.459Z,6.66
2017-01-28T02:00:22.585Z,6.64
2017-01-28T02:00:48.683Z,6.59
2017-01-28T02:01:14.801Z,6.57
2017-01-28T02:01:40.962Z,6.66
2017-01-28T02:02:07.148Z,6.56
2017-01-28T02:02:33.266Z,6.72
2017-01-28T02:02:59.418Z,6.72
2017-01-28T02:03:25.522Z,6.59
2017-01-28T02:03:51.635Z,6.67
2017-01-28T02:04:17.787Z,6.57
2017-01-28T02:04:43.951Z,6.72
2017-01-28T02:05:10.095Z,6.59
2017-01-28T02:05:36.221Z,6.67
2017-01-28T02:06:02.342Z,6.77
2017-01-28T02:06:28.482Z,6.66
2017-01-28T02:06:54.618Z,6.59
2017-01-28T02:07:20.705Z,6.57
2017-01-28T02:07:46.887Z,6.59
2017-01-28T02:08:13.017Z,6.6
2017-01-28T02:08:39.172Z,6.74
2017-01-28T02:09:05.338Z,6.7
2017-01-28T02:09:31.474Z,6.64
2017-01-28T02:09:57.566Z,6.57
2017-01-28T02:10:23.709Z,6.59
2017-01-28T02:10:49.838Z,6.59
2017-01-28T02:11:15.968Z,6.59
2017-01-28T02:11:42.083Z,6.6
2017-01-28T02:12:08.284Z,6.64
2017-01-28T02:12:34.385Z,6.56
2017-01-28T02:13:00.491Z,6.64
2017-01-28T02:13:26.679Z,6.66
2017-01-28T02:13:52.811Z,6.57
2017-01-28T02:14:18.956Z,6.63
2017-01-28T02:14:45.076Z,6.66
2017-01-28T02:15:11.275Z,6.57
2017-01-28T02:15:37.364Z,6.54
2017-01-28T02:16:03.457Z,6.59
2017-01-28T02:16:29.591Z,6.69
2017-01-28T02:16:55.712Z,6.64
2017-01-28T02:17:21.850Z,6.67
2017-01-28T02:17:47.985Z,6.54
2017-01-28T02:18:14.131Z,6.74
2017-01-28T02:18:40.300Z,6.57
2017-01-28T02:19:06.418Z,6.6
2017-01-28T02:19:32.543Z,6.66
2017-01-28T02:19:58.651Z,6.56
2017-01-28T02:20:24.806Z,6.74
2017-01-28T02:20:50.946Z,6.77
2017-01-28T02:21:17.078Z,6.7
2017-01-28T02:21:43.267Z,6.74
2017-01-28T02:22:09.389Z,6.7
2017-01-28T02:22:35.544Z,6.67
2017-01-28T02:23:01.713Z,6.62
2017-01-28T02:23:27.884Z,6.72
2017-01-28T02:23:53.977Z,6.56
2017-01-28T02:24:20.128Z,6.57
2017-01-28T02:24:46.287Z,6.64
2017-01-28T02:25:12.387Z,6.6
2017-01-28T02:25:38.500Z,6.56
2017-01-28T02:26:04.633Z,6.62
2017-01-28T02:26:30.797Z,6.6
2017-01-28T02:26:56.943Z,6.59
2017-01-28T02:27:23.076Z,6.57
2017-01-28T02:27:49.263Z,6.57
2017-01-28T02:28:15.383Z,6.51
2017-01-28T02:28:41.539Z,6.49
2017-01-28T02:29:07.624Z,6.46
2017-01-28T02:29:33.763Z,6.54
2017-01-28T02:29:59.863Z,6.57
2017-01-28T02:30:26.063Z,6.48
2017-01-28T02:30:52.241Z,6.52
2017-01-28T02:31:18.354Z,6.56
2017-01-28T02:31:44.514Z,6.49
2017-01-28T02:32:10.644Z,6.49
2017-01-28T02:32:36.805Z,6.51
2017-01-28T02:33:02.953Z,6.51
2017-01-28T02:33:29.142Z,6.51
2017-01-28T02:33:55.296Z,6.49
2017-01-28T02:34:21.473Z,6.51
2017-01-28T02:34:47.664Z,6.51
2017-01-28T02:35:13.782Z,6.54
2017-01-28T02:35:39.906Z,6.59
2017-01-28T02:36:06.105Z,6.52
2017-01-28T02:36:32.249Z,6.62
2017-01-28T02:36:58.344Z,6.63
2017-01-28T02:37:24.515Z,6.62
2017-01-28T02:37:50.695Z,6.52
2017-01-28T02:38:16.861Z,6.6
2017-01-28T02:38:43.044Z,6.57
2017-01-28T02:39:09.225Z,6.63
2017-01-28T02:39:35.361Z,6.64
2017-01-28T02:40:01.476Z,6.56
2017-01-28T02:40:27.568Z,6.54
2017-01-28T02:40:53.768Z,6.6
2017-01-28T02:41:19.912Z,6.56
2017-01-28T02:41:46.029Z,6.6
2017-01-28T02:42:12.166Z,6.6
2017-01-28T02:42:38.355Z,6.57
2017-01-28T02:43:04.490Z,6.62
2017-01-28T02:43:30.658Z,6.54
2017-01-28T02:43:56.812Z,6.59
2017-01-28T02:44:22.909Z,6.6
2017-01-28T02:44:49.018Z,6.6
2017-01-28T02:45:15.179Z,6.54
2017-01-28T02:45:41.317Z,6.54
2017-01-28T02:46:07.439Z,6.6
2017-01-28T02:46:33.606Z,6.59
2017-01-28T02:46:59.712Z,6.62
2017-01-28T02:47:25.874Z,6.52
2017-01-28T02:47:52.040Z,6.56
2017-01-28T02:48:18.209Z,6.63
2017-01-28T02:48:44.354Z,6.54
2017-01-28T02:49:10.514Z,6.62
2017-01-28T02:49:36.699Z,6.59
2017-01-28T02:50:02.848Z,6.63
2017-01-28T02:50:29.029Z,6.63
2017-01-28T02:50:55.147Z,6.62
2017-01-28T02:51:21.279Z,6.6
2017-01-28T02:51:47.411Z,6.63
2017-01-28T02:52:13.549Z,6.62
2017-01-28T02:52:39.690Z,6.56
2017-01-28T02:53:05.845Z,6.6
2017-01-28T02:53:32.022Z,6.59
2017-01-28T02:53:58.074Z,6.56
2017-01-28T02:54:24.194Z,6.6
2017-01-28T02:54:50.391Z,6.59
2017-01-28T02:55:16.542Z,6.56
2017-01-28T02:55:42.666Z,6.52
2017-01-28T02:56:08.859Z,6.57
2017-01-28T02:56:34.979Z,6.63
2017-01-28T02:57:01.072Z,6.54
2017-01-28T02:57:27.203Z,6.6
2017-01-28T02:57:53.332Z,6.6
2017-01-28T02:58:19.478Z,6.63
2017-01-28T02:58:45.635Z,6.63
2017-01-28T02:59:11.767Z,6.57
2017-01-28T02:59:37.923Z,6.62
2017-01-28T03:00:04.053Z,6.6
2017-01-28T03:00:30.196Z,6.6
2017-01-28T03:00:56.330Z,6.6
2017-01-28T03:01:22.457Z,6.62
2017-01-28T03:01:48.608Z,6.59
2017-01-28T03:02:14.719Z,6.62
2017-01-28T03:02:40.941Z,6.59
2017-01-28T03:03:07.027Z,6.6
2017-01-28T03:03:33.163Z,6.6
2017-01-28T03:03:59.320Z,6.59
2017-01-28T03:04:25.438Z,6.6
2017-01-28T03:04:51.610Z,6.62
2017-01-28T03:05:17.752Z,6.62
2017-01-28T03:05:43.875Z,6.59
2017-01-28T03:06:10.017Z,6.59
2017-01-28T03:06:36.151Z,6.6
2017-01-28T03:07:02.244Z,6.59
2017-01-28T03:07:28.438Z,6.59
2017-01-28T03:07:54.590Z,6.64
2017-01-28T03:08:20.736Z,6.56
2017-01-28T03:08:46.897Z,6.59
2017-01-28T03:09:13.050Z,6.62
2017-01-28T03:09:39.215Z,6.57
2017-01-28T03:10:05.359Z,6.57
2017-01-28T03:10:31.485Z,6.63
2017-01-28T03:10:57.594Z,6.62
2017-01-28T03:11:23.728Z,6.63
2017-01-28T03:11:49.826Z,6.6
2017-01-28T03:12:15.973Z,6.56
2017-01-28T03:12:42.098Z,6.6
2017-01-28T03:13:08.250Z,6.6
2017-01-28T03:13:34.359Z,6.62
2017-01-28T03:14:00.489Z,6.63
2017-01-28T03:14:26.600Z,6.57
2017-01-28T03:14:52.762Z,6.6
2017-01-28T03:15:18.915Z,6.59
2017-01-28T03:15:45.087Z,6.59
2017-01-28T03:16:11.219Z,6.54
2017-01-28T03:16:37.361Z,6.51
2017-01-28T03:17:03.498Z,6.44
2017-01-28T03:17:29.621Z,6.38
2017-01-28T03:17:55.759Z,6.49
2017-01-28T03:18:21.850Z,6.35
2017-01-28T03:18:47.981Z,6.38
2017-01-28T03:19:14.129Z,6.38
2017-01-28T03:19:40.262Z,6.36
2017-01-28T03:20:06.372Z,6.35
2017-01-28T03:20:32.504Z,6.28
2017-01-28T03:20:58.655Z,6.24
2017-01-28T03:21:24.854Z,6.19
2017-01-28T03:21:50.945Z,6.27
2017-01-28T03:22:17.064Z,6.27
2017-01-28T03:22:43.229Z,6.28
2017-01-28T03:23:09.346Z,6.11
2017-01-28T03:23:35.493Z,6.14
2017-01-28T03:24:01.649Z,6.17
2017-01-28T03:24:27.814Z,6.2
2017-01-28T03:24:53.939Z,6.14
2017-01-28T03:25:20.030Z,6.28
2017-01-28T03:25:46.176Z,6.17
2017-01-28T03:26:12.349Z,6.11
2017-01-28T03:26:38.473Z,6.04
2017-01-28T03:27:04.595Z,6.19
2017-01-28T03:27:30.755Z,6.14
2017-01-28T03:27:56.875Z,6.11
2017-01-28T03:28:22.966Z,6.17
2017-01-28T03:28:49.136Z,6.16
2017-01-28T03:29:15.263Z,6.22
2017-01-28T03:29:41.417Z,6.14
2017-01-28T03:30:07.540Z,6.14
2017-01-28T03:30:33.712Z,6.19
2017-01-28T03:30:59.880Z,6.31
2017-01-28T03:31:26.056Z,6.27
2017-01-28T03:31:52.191Z,6.3
2017-01-28T03:32:18.357Z,6.27
2017-01-28T03:32:44.514Z,6.22
2017-01-28T03:33:10.665Z,6.35
2017-01-28T03:33:36.791Z,6.26
2017-01-28T03:34:02.927Z,6.28
2017-01-28T03:34:29.065Z,6.28
2017-01-28T03:34:55.171Z,6.28
2017-01-28T03:35:21.330Z,6.36
2017-01-28T03:35:47.514Z,6.3
2017-01-28T03:36:13.640Z,6.36
2017-01-28T03:36:39.755Z,6.36
2017-01-28T03:37:05.914Z,6.35
2017-01-28T03:37:32.081Z,6.3
2017-01-28T03:37:58.166Z,6.36
2017-01-28T03:38:24.288Z,6.39
2017-01-28T03:38:50.395Z,6.41
2017-01-28T03:39:16.514Z,6.46
2017-01-28T03:39:42.636Z,6.44
2017-01-28T03:40:08.799Z,6.44
2017-01-28T03:40:34.922Z,6.33
2017-01-28T03:41:01.040Z,6.41
2017-01-28T03:41:27.197Z,6.36
2017-01-28T03:41:53.347Z,6.45
2017-01-28T03:42:19.439Z,6.42
2017-01-28T03:42:45.569Z,6.33
2017-01-28T03:43:11.723Z,6.41
2017-01-28T03:43:37.821Z,6.36
2017-01-28T03:44:03.920Z,6.42
2017-01-28T03:44:30.062Z,6.41
2017-01-28T03:44:56.230Z,6.35
2017-01-28T03:45:22.379Z,6.35
2017-01-28T03:45:48.551Z,6.33
2017-01-28T03:46:14.645Z,6.31
2017-01-28T03:46:40.747Z,6.3
2017-01-28T03:47:06.911Z,6.22
2017-01-28T03:47:33.046Z,6.22
2017-01-28T03:47:59.181Z,6.19
2017-01-28T03:48:25.298Z,6.16
2017-01-28T03:48:51.439Z,6.11
2017-01-28T03:49:17.607Z,5.98
2017-01-28T03:49:43.777Z,6.01
2017-01-28T03:50:09.873Z,6.02
2017-01-28T03:50:36.040Z,6.05
2017-01-28T03:51:02.226Z,5.98
2017-01-28T03:51:28.365Z,5.98
2017-01-28T03:51:54.549Z,5.94
2017-01-28T03:52:20.725Z,6.02
2017-01-28T03:52:46.881Z,5.93
2017-01-28T03:53:12.976Z,5.91
2017-01-28T03:53:39.071Z,5.87
2017-01-28T03:54:05.184Z,5.82
2017-01-28T03:54:31.331Z,5.86
2017-01-28T03:54:57.470Z,5.84
2017-01-28T03:55:23.578Z,5.87
2017-01-28T03:55:49.702Z,5.87
2017-01-28T03:56:15.788Z,5.89
2017-01-28T03:56:41.981Z,5.87
2017-01-28T03:57:08.147Z,5.93
2017-01-28T03:57:34.274Z,6.01
2017-01-28T03:58:00.398Z,6.02
2017-01-28T03:58:26.514Z,6.01
2017-01-28T03:58:52.705Z,6.01
2017-01-28T03:59:18.835Z,5.99
2017-01-28T03:59:44.973Z,6.07
2017-01-28T04:00:11.138Z,6.05
2017-01-28T04:00:37.271Z,6.04
2017-01-28T04:01:03.409Z,6.09
2017-01-28T04:01:29.620Z,6.07
2017-01-28T04:01:55.753Z,6.09
2017-01-28T04:02:21.863Z,6.12
2017-01-28T04:02:48.038Z,6.14
2017-01-28T04:03:14.198Z,6.17
2017-01-28T04:03:40.370Z,6.14
2017-01-28T04:04:06.570Z,6.16
2017-01-28T04:04:32.733Z,6.2
2017-01-28T04:04:58.852Z,6.2
2017-01-28T04:05:24.989Z,6.16
2017-01-28T04:05:51.130Z,6.2
2017-01-28T04:06:17.259Z,6.17
2017-01-28T04:06:43.405Z,6.24
2017-01-28T04:07:09.544Z,6.19
2017-01-28T04:07:35.685Z,6.19
2017-01-28T04:08:01.828Z,6.22
2017-01-28T04:08:27.951Z,6.19
2017-01-28T04:08:54.071Z,6.14
2017-01-28T04:09:20.258Z,6.09
2017-01-28T04:09:46.438Z,6.01
2017-01-28T04:10:12.570Z,6.02
2017-01-28T04:10:38.736Z,5.98
2017-01-28T04:11:04.894Z,6.01
2017-01-28T04:11:31.064Z,5.93
2017-01-28T04:11:57.186Z,6.02
2017-01-28T04:12:23.372Z,5.98
2017-01-28T04:12:49.539Z,5.91
2017-01-28T04:13:15.725Z,5.9
2017-01-28T04:13:41.833Z,5.84
2017-01-28T04:14:07.947Z,5.84
2017-01-28T04:14:34.075Z,5.89
2017-01-28T04:15:00.193Z,5.82
2017-01-28T04:15:26.384Z,5.8
2017-01-28T04:15:52.551Z,5.82
2017-01-28T04:16:18.667Z,5.75
2017-01-28T04:16:44.782Z,5.79
2017-01-28T04:17:10.921Z,5.79
2017-01-28T04:17:37.040Z,5.75
2017-01-28T04:18:03.192Z,5.69
2017-01-28T04:18:29.324Z,5.68
2017-01-28T04:18:55.446Z,5.62
2017-01-28T04:19:21.614Z,5.53
2017-01-28T04:19:47.776Z,5.54
2017-01-28T04:20:13.958Z,5.59
2017-01-28T04:20:40.088Z,5.51
2017-01-28T04:21:06.206Z,5.54
2017-01-28T04:21:32.329Z,5.59
2017-01-28T04:21:58.497Z,5.69
2017-01-28T04:22:24.653Z,5.64
2017-01-28T04:22:50.771Z,5.59
2017-01-28T04:23:16.875Z,5.59
2017-01-28T04:23:43.053Z,5.54
2017-01-28T04:24:09.171Z,5.53
2017-01-28T04:24:35.356Z,5.5
2017-01-28T04:25:01.459Z,5.47
2017-01-28T04:25:27.609Z,5.51
2017-01-28T04:25:53.732Z,5.51
2017-01-28T04:26:19.862Z,5.38
2017-01-28T04:26:46.004Z,5.35
2017-01-28T04:27:12.155Z,5.47
2017-01-28T04:27:38.262Z,5.38
2017-01-28T04:28:04.351Z,5.32
2017-01-28T04:28:30.470Z,5.38
2017-01-28T04:28:56.634Z,5.3
2017-01-28T04:29:22.755Z,5.3
2017-01-28T04:29:48.895Z,5.23
2017-01-28T04:30:15.005Z,5.28
2017-01-28T04:30:41.160Z,5.25
2017-01-28T04:31:07.286Z,5.3
2017-01-28T04:31:33.406Z,5.29
2017-01-28T04:31:59.581Z,5.25
2017-01-28T04:32:25.718Z,5.14
2017-01-28T04:32:51.879Z,5.11
2017-01-28T04:33:17.993Z,5.08
2017-01-28T04:33:44.136Z,5.17
2017-01-28T04:34:10.252Z,5.14
2017-01-28T04:34:36.376Z,5.15
2017-01-28T04:35:02.546Z,5.11
2017-01-28T04:35:28.702Z,5.1
2017-01-28T04:35:54.818Z,5.08
2017-01-28T04:36:20.986Z,5.04
2017-01-28T04:36:47.129Z,5.14
2017-01-28T04:37:13.266Z,5.11
2017-01-28T04:37:39.412Z,5.18
2017-01-28T04:38:05.528Z,5.25
2017-01-28T04:38:31.693Z,5.02
2017-01-28T04:38:57.799Z,5.17
2017-01-28T04:39:23.909Z,5.07
2017-01-28T04:39:50.016Z,5.12
2017-01-28T04:40:16.208Z,5.18
2017-01-28T04:40:42.297Z,5.1
2017-01-28T04:41:08.442Z,5.1
2017-01-28T04:41:34.605Z,5.15
2017-01-28T04:42:00.745Z,5.12
2017-01-28T04:42:26.874Z,4.99
2017-01-28T04:42:52.994Z,5.15
2017-01-28T04:43:19.123Z,4.99
2017-01-28T04:43:45.228Z,5.05
2017-01-28T04:44:11.334Z,5.02
2017-01-28T04:44:37.461Z,5.12
2017-01-28T04:45:03.626Z,5.07
2017-01-28T04:45:29.719Z,5.08
2017-01-28T04:45:55.862Z,5.07
2017-01-28T04:46:21.999Z,5.14
2017-01-28T04:46:48.121Z,5.02
2017-01-28T04:47:14.208Z,5.07
2017-01-28T04:47:40.367Z,5.1
2017-01-28T04:48:06.531Z,5.14
2017-01-28T04:48:32.638Z,5.18
2017-01-28T04:48:58.776Z,5.02
2017-01-28T04:49:24.871Z,5.07
2017-01-28T04:49:51.042Z,5.05
2017-01-28T04:50:17.163Z,5.1
2017-01-28T04:50:43.249Z,5.11
2017-01-28T04:51:09.423Z,5.17
2017-01-28T04:51:35.520Z,5.25
2017-01-28T04:52:01.638Z,5.2
2017-01-28T04:52:27.774Z,5.25
2017-01-28T04:52:53.932Z,5.29
2017-01-28T04:53:20.058Z,5.28
2017-01-28T04:53:46.170Z,5.25
2017-01-28T04:54:12.285Z,5.23
2017-01-28T04:54:38.426Z,5.29
2017-01-28T04:55:04.614Z,5.29
2017-01-28T04:55:30.705Z,5.21
2017-01-28T04:55:56.944Z,5.28
2017-01-28T04:56:23.078Z,5.28
2017-01-28T04:56:49.187Z,5.3
2017-01-28T04:57:15.344Z,5.38
2017-01-28T04:57:41.505Z,5.36
2017-01-28T04:58:07.623Z,5.38
2017-01-28T04:58:33.721Z,5.36
2017-01-28T04:58:59.895Z,5.38
2017-01-28T04:59:26.061Z,5.47
2017-01-28T04:59:52.223Z,5.51
2017-01-28T05:00:18.308Z,5.51
2017-01-28T05:00:44.438Z,5.59
2017-01-28T05:01:10.545Z,5.61
2017-01-28T05:01:36.634Z,5.59
2017-01-28T05:02:02.779Z,5.68
2017-01-28T05:02:28.948Z,5.68
2017-01-28T05:02:55.114Z,5.68
2017-01-28T05:03:21.242Z,5.72
2017-01-28T05:03:47.371Z,5.68
2017-01-28T05:04:13.463Z,5.79
2017-01-28T05:04:39.652Z,5.75
2017-01-28T05:05:05.765Z,5.75
2017-01-28T05:05:31.907Z,5.82
2017-01-28T05:05:58.049Z,5.86
2017-01-28T05:06:24.188Z,5.87
2017-01-28T05:06:50.283Z,5.97
2017-01-28T05:07:16.420Z,5.9
2017-01-28T05:07:42.514Z,5.9
2017-01-28T05:08:08.597Z,5.89
2017-01-28T05:08:34.715Z,5.91
2017-01-28T05:09:00.841Z,5.87
2017-01-28T05:09:26.961Z,5.98
2017-01-28T05:09:53.124Z,5.9
2017-01-28T05:10:19.243Z,5.98
2017-01-28T05:10:45.362Z,5.94
2017-01-28T05:11:11.464Z,5.94
2017-01-28T05:11:37.597Z,5.94
2017-01-28T05:12:03.713Z,6.02
2017-01-28T05:12:29.888Z,5.98
2017-01-28T05:12:56.054Z,5.9
2017-01-28T05:13:22.168Z,5.97
2017-01-28T05:13:48.290Z,6.04
2017-01-28T05:14:14.454Z,5.99
2017-01-28T05:14:40.632Z,6.04
2017-01-28T05:15:06.755Z,6.02
2017-01-28T05:15:32.941Z,5.97
2017-01-28T05:15:59.075Z,5.98
2017-01-28T05:16:25.210Z,5.98
2017-01-28T05:16:51.353Z,6.02
2017-01-28T05:17:17.447Z,6.04
2017-01-28T05:17:43.580Z,6.02
2017-01-28T05:18:09.699Z,6.07
2017-01-28T05:18:35.785Z,6.11
2017-01-28T05:19:01.898Z,6.09
2017-01-28T05:19:27.991Z,6.2
2017-01-28T05:19:54.088Z,6.2
2017-01-28T05:20:20.243Z,6.17
2017-01-28T05:20:46.365Z,6.22
2017-01-28T05:21:12.543Z,6.3
2017-01-28T05:21:38.665Z,6.19
2017-01-28T05:22:04.753Z,6.27
2017-01-28T05:22:30.894Z,6.24
2017-01-28T05:22:56.986Z,6.19
2017-01-28T05:23:23.128Z,6.2
2017-01-28T05:23:49.263Z,6.28
2017-01-28T05:24:15.395Z,6.2
2017-01-28T05:24:41.509Z,6.27
2017-01-28T05:25:07.668Z,6.24
2017-01-28T05:25:33.833Z,6.3
2017-01-28T05:25:59.953Z,6.27
2017-01-28T05:26:26.081Z,6.3
2017-01-28T05:26:52.174Z,6.35
2017-01-28T05:27:18.314Z,6.24
2017-01-28T05:27:44.496Z,6.31
2017-01-28T05:28:10.610Z,6.27
2017-01-28T05:28:36.741Z,6.26
2017-01-28T05:29:02.880Z,6.22
2017-01-28T05:29:28.999Z,6.27
2017-01-28T05:29:55.149Z,6.27
2017-01-28T05:30:21.320Z,6.24
2017-01-28T05:30:47.435Z,6.27
2017-01-28T05:31:13.580Z,6.28
2017-01-28T05:31:39.686Z,6.19
2017-01-28T05:32:05.831Z,6.24
2017-01-28T05:32:32.002Z,6.26
2017-01-28T05:32:58.138Z,6.27
2017-01-28T05:33:24.296Z,6.27
2017-01-28T05:33:50.394Z,6.22
2017-01-28T05:34:16.519Z,6.3
2017-01-28T05:34:42.619Z,6.12
2017-01-28T05:35:08.779Z,6.22
2017-01-28T05:35:34.869Z,6.28
2017-01-28T05:36:00.991Z,6.28
2017-01-28T05:36:27.156Z,6.24
2017-01-28T05:36:53.278Z,6.24
2017-01-28T05:37:19.396Z,6.24
2017-01-28T05:37:45.553Z,6.3
2017-01-28T05:38:11.673Z,6.19
2017-01-28T05:38:37.788Z,6.24
2017-01-28T05:39:03.931Z,6.26
2017-01-28T05:39:30.103Z,6.19
2017-01-28T05:39:56.263Z,6.2
2017-01-28T05:40:22.366Z,6.2
2017-01-28T05:40:48.478Z,6.19
2017-01-28T05:41:14.609Z,6.24
2017-01-28T05:41:40.737Z,6.3
2017-01-28T05:42:06.852Z,6.17
2017-01-28T05:42:32.980Z,6.17
2017-01-28T05:42:59.108Z,6.22
2017-01-28T05:43:25.230Z,6.19
2017-01-28T05:43:51.414Z,6.22
2017-01-28T05:44:17.547Z,6.35
2017-01-28T05:44:43.762Z,6.27
2017-01-28T05:45:09.887Z,6.22
2017-01-28T05:45:36.030Z,6.27
2017-01-28T05:46:02.215Z,6.33
2017-01-28T05:46:28.319Z,6.35
2017-01-28T05:46:54.428Z,6.3
2017-01-28T05:47:20.563Z,6.38
2017-01-28T05:47:46.718Z,6.38
2017-01-28T05:48:12.813Z,6.39
2017-01-28T05:48:38.906Z,6.36
2017-01-28T05:49:05.090Z,6.33
2017-01-28T05:49:31.248Z,6.3
2017-01-28T05:49:57.354Z,6.26
2017-01-28T05:50:23.483Z,6.24